Time;durP1;ratioP1;P1;durP2;ratioP2;P2;SDS_P1;SDS_P2;PMS_P1;PMS_P2;Temp;Humidity;BMP_temperature;BMP_pressure;BME280_temperature;BME280_humidity;BME280_pressure;Samples;Min_cycle;Max_cycle;Signal;HPM_P1;HPM_P2
2023/10/03 00:01:43;;;;;;;9.10;5.80;;;;;;;14.17;54.94;95905.97;5069345;28;20451;-77
2023/10/03 00:04:09;;;;;;;8.95;5.90;;;;;;;14.13;55.15;95911.59;5087950;28;20034;-76
2023/10/03 00:06:36;;;;;;;7.82;5.63;;;;;;;14.17;54.92;95919.81;5087109;28;20027;-76
2023/10/03 00:09:02;;;;;;;8.25;5.50;;;;;;;14.06;55.28;95912.56;5087693;28;20036;-76
2023/10/03 00:11:27;;;;;;;9.45;5.63;;;;;;;14.07;55.41;95921.63;5087675;28;20039;-77
2023/10/03 00:13:53;;;;;;;12.32;6.03;;;;;;;14.05;55.71;95921.31;5086476;28;20054;-76
2023/10/03 00:16:20;;;;;;;9.25;5.70;;;;;;;14.03;55.44;95920.94;5088306;28;20575;-77
2023/10/03 00:18:46;;;;;;;11.18;6.20;;;;;;;14.01;55.48;95917.84;5086455;28;20107;-76
2023/10/03 00:21:12;;;;;;;10.50;5.70;;;;;;;13.98;55.34;95921.47;5088146;28;20523;-77
2023/10/03 00:23:37;;;;;;;7.90;5.80;;;;;;;13.94;55.44;95912.53;5086664;28;20034;-76
2023/10/03 00:26:04;;;;;;;14.70;6.13;;;;;;;13.88;55.38;95926.09;5070399;28;20031;-77
2023/10/03 00:28:30;;;;;;;8.77;5.80;;;;;;;13.88;55.38;95930.81;5105423;28;20024;-76
2023/10/03 00:30:55;;;;;;;13.73;6.82;;;;;;;13.84;55.32;95913.56;5105042;28;20120;-76
2023/10/03 00:33:25;;;;;;;9.77;6.15;;;;;;;13.77;55.51;95911.78;5105931;28;20102;-77
2023/10/03 00:35:51;;;;;;;9.20;5.68;;;;;;;13.74;55.86;95920.91;5086702;28;20115;-76
2023/10/03 00:38:16;;;;;;;11.35;6.20;;;;;;;13.70;55.81;95909.94;5107711;28;20023;-76
2023/10/03 00:40:52;;;;;;;11.82;5.32;;;;;;;13.73;55.77;95920.16;5089916;28;20184;-77
2023/10/03 00:43:18;;;;;;;11.25;5.60;;;;;;;13.71;55.81;95921.81;5091779;28;20038;-76
2023/10/03 00:45:45;;;;;;;9.88;5.43;;;;;;;13.72;55.95;95915.06;5090050;28;20028;-76
2023/10/03 00:48:11;;;;;;;10.73;5.68;;;;;;;13.68;56.02;95923.44;5108601;28;20295;-77
2023/10/03 00:50:37;;;;;;;8.23;5.22;;;;;;;13.61;56.12;95920.84;5091322;28;20440;-76
2023/10/03 00:53:12;;;;;;;11.20;5.38;;;;;;;13.61;56.33;95922.84;5089512;28;20019;-76
2023/10/03 00:55:40;;;;;;;9.60;5.57;;;;;;;13.54;56.68;95915.50;5092217;28;20024;-76
2023/10/03 00:58:17;;;;;;;9.95;6.40;;;;;;;13.50;56.53;95912.81;5072380;28;20073;-76
2023/10/03 01:00:45;;;;;;;8.82;5.80;;;;;;;13.53;56.41;95923.03;5108502;28;20028;-74
2023/10/03 01:03:28;;;;;;;10.18;6.18;;;;;;;13.56;56.36;95924.13;5090258;28;20131;-77
2023/10/03 01:05:59;;;;;;;11.18;5.63;;;;;;;13.53;56.42;95914.72;5089317;28;20034;-77
2023/10/03 01:08:25;;;;;;;9.18;5.90;;;;;;;13.55;56.41;95920.59;5073840;28;20031;-77
2023/10/03 01:10:51;;;;;;;9.60;6.00;;;;;;;13.46;57.08;95914.13;5088957;28;20024;-77
2023/10/03 01:13:19;;;;;;;11.38;6.45;;;;;;;13.39;56.65;95912.31;5073482;28;20130;-77
2023/10/03 01:15:49;;;;;;;10.05;5.90;;;;;;;13.45;56.92;95921.63;5089848;28;20062;-75
2023/10/03 01:18:18;;;;;;;10.07;5.75;;;;;;;13.36;56.90;95918.72;5090103;28;20486;-77
2023/10/03 01:20:48;;;;;;;12.65;5.95;;;;;;;13.36;56.95;95923.44;5090320;28;20024;-76
2023/10/03 01:23:15;;;;;;;11.02;6.13;;;;;;;13.32;57.01;95923.53;5089108;28;20311;-76
2023/10/03 01:25:44;;;;;;;12.23;6.25;;;;;;;13.24;57.33;95920.13;5073740;28;20039;-76
2023/10/03 01:28:11;;;;;;;9.07;6.10;;;;;;;13.28;57.04;95918.06;5107060;28;20445;-76
2023/10/03 01:30:37;;;;;;;11.23;6.45;;;;;;;13.26;57.20;95916.97;5090007;28;20023;-76
2023/10/03 01:33:03;;;;;;;10.10;5.82;;;;;;;13.28;57.01;95907.03;5089118;28;20061;-76
2023/10/03 01:35:28;;;;;;;9.68;5.82;;;;;;;13.24;57.16;95909.09;5089704;28;20058;-76
2023/10/03 01:37:53;;;;;;;12.18;6.55;;;;;;;13.19;57.29;95917.09;5107773;28;20030;-76
2023/10/03 01:40:19;;;;;;;12.52;5.85;;;;;;;13.16;57.23;95909.69;5089139;28;20055;-77
2023/10/03 01:42:47;;;;;;;8.77;5.90;;;;;;;13.20;57.19;95919.44;5090148;28;20031;-75
2023/10/03 01:45:17;;;;;;;11.55;5.85;;;;;;;13.17;57.24;95911.22;5087787;28;20020;-77
2023/10/03 01:47:47;;;;;;;11.30;6.22;;;;;;;13.16;57.16;95907.69;5090062;28;20035;-76
2023/10/03 01:50:13;;;;;;;10.55;6.20;;;;;;;13.11;57.36;95913.72;5072065;28;20024;-77
2023/10/03 01:52:42;;;;;;;18.27;6.13;;;;;;;13.11;57.13;95913.72;5072902;28;20031;-75
2023/10/03 01:55:12;;;;;;;10.65;6.22;;;;;;;13.08;57.43;95908.31;5089676;28;20064;-77
2023/10/03 01:57:38;;;;;;;9.93;6.18;;;;;;;13.09;57.36;95907.09;5087991;28;20053;-77
2023/10/03 02:00:11;;;;;;;10.70;6.30;;;;;;;13.00;57.46;95913.97;5089460;28;20346;-77
2023/10/03 02:02:36;;;;;;;8.55;5.28;;;;;;;12.99;57.55;95906.13;5106680;28;20038;-77
2023/10/03 02:05:02;;;;;;;9.88;5.70;;;;;;;12.98;57.67;95902.59;5089232;28;20032;-77
2023/10/03 02:07:28;;;;;;;8.95;5.47;;;;;;;12.96;57.66;95906.97;5106802;28;20027;-77
2023/10/03 02:09:55;;;;;;;10.35;5.45;;;;;;;12.94;57.54;95882.56;5107501;28;20103;-77
2023/10/03 02:12:21;;;;;;;8.32;5.80;;;;;;;12.94;57.61;95892.81;5071819;28;20031;-78
2023/10/03 02:14:49;;;;;;;9.43;6.05;;;;;;;12.93;57.51;95885.75;5088264;28;20090;-77
2023/10/03 02:17:14;;;;;;;7.75;5.63;;;;;;;12.89;57.50;95882.28;5107515;28;20019;-77
2023/10/03 02:19:40;;;;;;;11.13;6.13;;;;;;;12.86;57.51;95867.38;5106300;28;20485;-76
2023/10/03 02:22:05;;;;;;;10.75;6.70;;;;;;;12.86;57.76;95878.41;5107283;28;20100;-76
2023/10/03 02:24:30;;;;;;;10.07;6.03;;;;;;;12.80;57.81;95880.13;5088103;28;20030;-76
2023/10/03 02:26:56;;;;;;;8.88;6.15;;;;;;;12.87;57.78;95877.22;5107344;28;20217;-76
2023/10/03 02:29:21;;;;;;;10.38;6.32;;;;;;;12.82;57.80;95869.44;5088094;28;20102;-76
2023/10/03 02:31:47;;;;;;;10.52;5.60;;;;;;;12.64;57.63;95853.28;5088496;28;20019;-76
2023/10/03 02:34:14;;;;;;;11.43;5.68;;;;;;;12.80;57.78;95874.63;5088518;28;20064;-76
2023/10/03 02:36:39;;;;;;;8.77;6.20;;;;;;;12.72;57.81;95875.97;5087849;28;20027;-76
2023/10/03 02:39:06;;;;;;;10.20;7.25;;;;;;;12.67;57.84;95871.75;5107350;28;20026;-77
2023/10/03 02:41:34;;;;;;;12.20;6.38;;;;;;;12.67;57.97;95873.72;5087303;28;20053;-77
2023/10/03 02:44:00;;;;;;;13.68;6.72;;;;;;;12.64;58.09;95869.84;5072129;28;20073;-75
2023/10/03 02:46:26;;;;;;;10.00;6.20;;;;;;;12.62;58.06;95868.72;5105910;28;20050;-75
2023/10/03 02:48:52;;;;;;;10.75;6.10;;;;;;;12.60;58.40;95866.38;5088629;28;20031;-75
2023/10/03 02:51:17;;;;;;;10.43;6.38;;;;;;;12.57;58.22;95877.50;5106296;28;20031;-75
2023/10/03 02:53:43;;;;;;;14.02;6.57;;;;;;;12.55;58.28;95872.38;5087847;28;20053;-75
2023/10/03 02:56:09;;;;;;;15.70;7.20;;;;;;;12.52;58.13;95887.06;5106663;28;20497;-75
2023/10/03 02:58:35;;;;;;;11.85;7.03;;;;;;;12.52;58.31;95886.28;5105538;28;20136;-75
2023/10/03 03:01:00;;;;;;;9.00;6.18;;;;;;;12.50;58.30;95886.69;5088178;28;20027;-76
2023/10/03 03:03:38;;;;;;;11.13;6.70;;;;;;;12.47;58.47;95890.31;5105484;28;20115;-76
2023/10/03 03:06:10;;;;;;;12.23;6.82;;;;;;;12.46;58.42;95884.00;5090004;28;20470;-77
2023/10/03 03:08:39;;;;;;;10.53;7.07;;;;;;;12.48;58.59;95892.63;5106341;28;20034;-77
2023/10/03 03:11:05;;;;;;;11.85;6.43;;;;;;;12.45;58.57;95887.97;5088141;28;20749;-77
2023/10/03 03:13:32;;;;;;;13.13;6.47;;;;;;;12.41;58.72;95889.25;5088308;28;20189;-76
2023/10/03 03:16:02;;;;;;;11.88;6.78;;;;;;;12.41;58.84;95894.78;5105449;28;20055;-76
2023/10/03 03:18:32;;;;;;;12.50;6.65;;;;;;;12.40;58.80;95901.50;5088230;28;20041;-76
2023/10/03 03:21:07;;;;;;;12.27;6.90;;;;;;;12.34;59.00;95892.94;5087811;28;20033;-76
2023/10/03 03:23:36;;;;;;;21.02;7.60;;;;;;;12.34;59.09;95895.69;5088845;28;20046;-76
2023/10/03 03:26:29;;;;;;;12.95;8.60;;;;;;;12.34;59.02;95898.44;5106204;28;20031;-76
2023/10/03 03:28:52;;;;;;;13.85;7.60;;;;;;;12.31;59.18;95896.53;5089967;28;20418;-76
2023/10/03 03:33:56;;;;;;;11.93;7.40;;;;;;;12.31;59.12;95898.50;5087738;28;20032;-77
2023/10/03 03:36:24;;;;;;;13.98;8.20;;;;;;;12.31;59.15;95898.50;5088168;28;20027;-77
2023/10/03 03:38:51;;;;;;;13.05;8.40;;;;;;;12.26;59.20;95904.53;5070941;28;20118;-77
2023/10/03 03:41:18;;;;;;;14.45;8.18;;;;;;;12.29;59.21;95912.72;5105642;28;20521;-77
2023/10/03 03:43:44;;;;;;;14.30;8.63;;;;;;;12.26;58.96;95908.06;5088571;28;20034;-77
2023/10/03 03:46:10;;;;;;;15.43;8.48;;;;;;;12.26;58.89;95910.03;5105185;28;20436;-77
2023/10/03 03:48:36;;;;;;;13.10;7.22;;;;;;;12.18;58.97;95910.19;5088171;28;20058;-77
2023/10/03 03:51:11;;;;;;;18.02;8.52;;;;;;;12.15;58.99;95904.72;5105170;28;20032;-77
2023/10/03 03:53:36;;;;;;;18.77;8.90;;;;;;;12.20;58.78;95909.75;5088559;28;20448;-77
2023/10/03 03:56:08;;;;;;;18.55;8.20;;;;;;;12.19;58.74;95916.47;5070445;28;20534;-77
2023/10/03 03:58:37;;;;;;;15.38;8.95;;;;;;;12.17;58.62;95911.38;5086711;28;20032;-77
2023/10/03 04:01:10;;;;;;;18.88;8.25;;;;;;;12.16;58.92;95923.63;5088116;28;20034;-75
2023/10/03 04:03:36;;;;;;;15.13;7.35;;;;;;;12.14;58.71;95917.72;5087504;28;20020;-75
2023/10/03 04:06:01;;;;;;;16.00;7.80;;;;;;;12.12;59.14;95916.63;5106051;28;20058;-75
2023/10/03 04:08:26;;;;;;;13.75;8.00;;;;;;;12.15;58.99;95913.78;5086437;28;20505;-78
2023/10/03 04:10:54;;;;;;;15.90;7.30;;;;;;;12.14;59.02;95912.22;5087460;28;20033;-76
2023/10/03 04:13:20;;;;;;;16.17;7.78;;;;;;;12.00;59.22;95906.22;5088913;28;20019;-76
2023/10/03 04:15:46;;;;;;;14.68;7.80;;;;;;;12.03;59.22;95908.88;5073825;28;20051;-76
2023/10/03 04:18:13;;;;;;;14.20;8.68;;;;;;;12.05;59.13;95925.81;5091505;28;20047;-77
2023/10/03 04:20:40;;;;;;;17.00;8.68;;;;;;;11.95;59.08;95911.00;5108442;28;20042;-77
2023/10/03 04:23:08;;;;;;;11.02;7.63;;;;;;;12.02;59.12;95917.59;5110244;28;20027;-78
2023/10/03 04:25:34;;;;;;;11.52;6.95;;;;;;;12.01;58.75;95916.03;5090078;28;20058;-75
2023/10/03 04:28:01;;;;;;;13.07;7.90;;;;;;;11.98;59.02;95914.13;5091075;28;20410;-77
2023/10/03 04:30:27;;;;;;;14.70;7.75;;;;;;;11.99;59.13;95921.19;5090343;28;20047;-77
2023/10/03 04:32:55;;;;;;;11.35;7.50;;;;;;;11.84;59.45;95901.38;5090798;28;20027;-75
2023/10/03 04:35:22;;;;;;;12.98;7.40;;;;;;;11.93;59.22;95916.19;5091032;28;20031;-76
2023/10/03 04:37:51;;;;;;;13.25;7.70;;;;;;;11.87;59.25;95917.06;5089725;28;20028;-76
2023/10/03 04:40:22;;;;;;;13.98;7.82;;;;;;;11.91;59.18;95915.03;5091431;28;20507;-77
2023/10/03 04:42:50;;;;;;;14.75;7.47;;;;;;;11.83;59.48;95919.91;5089968;28;20035;-76
2023/10/03 04:45:18;;;;;;;13.52;7.45;;;;;;;11.83;59.26;95914.38;5108756;28;20178;-76
2023/10/03 04:47:44;;;;;;;16.40;7.80;;;;;;;11.83;59.37;95910.84;5089811;28;20016;-76
2023/10/03 04:50:11;;;;;;;17.05;7.65;;;;;;;11.88;59.41;95915.88;5090311;28;20019;-76
2023/10/03 04:52:38;;;;;;;17.70;8.13;;;;;;;11.86;59.40;95912.75;5090011;28;20102;-77
2023/10/03 04:55:03;;;;;;;14.07;8.15;;;;;;;11.84;59.42;95904.16;5108036;28;20019;-77
2023/10/03 04:57:29;;;;;;;15.23;8.32;;;;;;;11.85;59.54;95903.72;5073749;28;20508;-76
2023/10/03 04:59:59;;;;;;;21.92;9.98;;;;;;;11.94;59.41;95919.72;5107230;28;20064;-77
2023/10/03 05:02:25;;;;;;;15.88;8.80;;;;;;;11.93;59.70;95915.41;5090672;28;20027;-76
2023/10/03 05:04:51;;;;;;;19.98;8.88;;;;;;;11.91;59.79;95918.56;5088848;28;20028;-77
2023/10/03 05:07:17;;;;;;;20.60;9.30;;;;;;;11.94;59.65;95919.72;5108536;28;20024;-77
2023/10/03 05:09:42;;;;;;;17.27;9.43;;;;;;;11.99;59.60;95919.22;5089550;28;20026;-78
2023/10/03 05:12:08;;;;;;;16.83;8.73;;;;;;;11.98;59.70;95927.88;5089274;28;20088;-77
2023/10/03 05:14:34;;;;;;;24.38;9.73;;;;;;;12.02;59.66;95923.09;5089961;28;20051;-77
2023/10/03 05:17:01;;;;;;;21.75;9.48;;;;;;;11.98;59.57;95919.63;5089422;28;20032;-78
2023/10/03 05:19:27;;;;;;;22.08;10.23;;;;;;;12.07;59.73;95930.88;5090359;28;20045;-77
2023/10/03 05:21:53;;;;;;;19.83;11.18;;;;;;;12.19;59.63;95930.25;5088769;28;20505;-77
2023/10/03 05:24:19;;;;;;;18.08;10.35;;;;;;;12.21;59.30;95925.88;5089383;28;20035;-76
2023/10/03 05:26:44;;;;;;;23.38;10.88;;;;;;;12.22;59.37;95930.19;5107271;28;20028;-77
2023/10/03 05:29:10;;;;;;;20.17;10.40;;;;;;;12.25;59.32;95938.81;5089685;28;20032;-78
2023/10/03 05:31:40;;;;;;;19.75;10.00;;;;;;;12.24;59.33;95935.28;5089732;28;20038;-77
2023/10/03 05:34:09;;;;;;;15.85;9.60;;;;;;;12.29;59.30;95939.53;5089626;28;20034;-75
2023/10/03 05:36:35;;;;;;;18.75;8.95;;;;;;;12.30;59.19;95932.81;5090189;28;20020;-74
2023/10/03 05:39:00;;;;;;;14.65;8.18;;;;;;;12.32;59.27;95931.16;5088426;28;20098;-77
2023/10/03 05:41:26;;;;;;;12.20;7.40;;;;;;;12.35;59.38;95930.34;5089576;28;20652;-78
2023/10/03 05:43:52;;;;;;;14.32;7.50;;;;;;;12.44;58.95;95938.81;5106738;28;20050;-79
2023/10/03 05:46:18;;;;;;;16.30;8.25;;;;;;;12.48;58.66;95942.28;5072469;28;20031;-77
2023/10/03 05:48:43;;;;;;;14.43;7.50;;;;;;;12.53;58.50;95932.72;5088965;28;20023;-77
2023/10/03 05:51:09;;;;;;;15.55;8.23;;;;;;;12.60;58.46;95942.84;5071875;28;20023;-78
2023/10/03 05:53:35;;;;;;;15.35;7.85;;;;;;;12.66;58.63;95936.38;5107998;28;20081;-77
2023/10/03 05:56:01;;;;;;;13.45;7.35;;;;;;;12.77;58.11;95949.97;5106587;28;20024;-78
2023/10/03 05:58:27;;;;;;;13.65;8.38;;;;;;;12.77;58.02;95944.44;5107697;28;20031;-77
2023/10/03 06:00:52;;;;;;;14.00;7.95;;;;;;;12.85;58.12;95945.09;5105501;28;20111;-77
2023/10/03 06:03:18;;;;;;;14.55;8.00;;;;;;;12.89;58.01;95941.03;5106701;28;20027;-77
2023/10/03 06:05:43;;;;;;;15.00;8.77;;;;;;;12.98;57.89;95948.72;5106509;28;20023;-76
2023/10/03 06:08:12;;;;;;;11.63;7.40;;;;;;;13.03;57.78;95945.47;5088419;28;20457;-76
2023/10/03 06:10:38;;;;;;;16.60;7.55;;;;;;;13.10;57.38;95947.28;5107368;28;20379;-76
2023/10/03 06:13:05;;;;;;;14.77;8.07;;;;;;;13.08;57.20;95941.44;5105331;28;20053;-76
2023/10/03 06:15:32;;;;;;;14.07;7.32;;;;;;;13.21;56.88;95947.84;5107631;28;20488;-77
2023/10/03 06:17:57;;;;;;;17.38;8.00;;;;;;;13.24;56.74;95955.25;5087725;28;20023;-76
2023/10/03 06:20:24;;;;;;;15.60;8.23;;;;;;;13.30;56.67;95959.06;5107317;28;20411;-76
2023/10/03 06:22:50;;;;;;;12.48;7.88;;;;;;;13.40;56.68;95957.25;5106023;28;20474;-75
2023/10/03 06:25:15;;;;;;;14.68;7.75;;;;;;;13.48;56.75;95956.69;5088888;28;20283;-75
2023/10/03 06:27:41;;;;;;;10.88;6.68;;;;;;;13.58;56.60;95963.13;5071443;28;20094;-75
2023/10/03 06:30:07;;;;;;;14.05;6.90;;;;;;;13.58;56.44;95943.03;5088262;28;20098;-76
2023/10/03 06:32:32;;;;;;;16.05;6.70;;;;;;;13.66;56.36;95961.78;5089023;28;20028;-76
2023/10/03 06:34:57;;;;;;;11.75;6.43;;;;;;;13.71;56.20;95961.25;5105106;28;20084;-75
2023/10/03 06:37:24;;;;;;;12.90;7.00;;;;;;;13.82;55.87;95963.75;5107278;28;20062;-75
2023/10/03 06:39:49;;;;;;;13.70;6.60;;;;;;;13.87;55.77;95963.22;5087790;28;20183;-75
2023/10/03 06:42:14;;;;;;;12.85;7.10;;;;;;;13.97;55.70;95964.94;5088688;28;20068;-75
2023/10/03 06:44:43;;;;;;;14.32;7.47;;;;;;;14.06;55.00;95967.09;5106009;28;20110;-75
2023/10/03 06:47:08;;;;;;;15.05;7.80;;;;;;;14.13;54.65;95979.94;5088843;28;20484;-76
2023/10/03 06:49:34;;;;;;;12.05;7.63;;;;;;;14.20;54.74;95986.06;5088566;28;20032;-75
2023/10/03 06:52:01;;;;;;;13.45;7.68;;;;;;;14.24;54.49;95981.22;5105755;28;20023;-76
2023/10/03 06:54:27;;;;;;;12.60;6.93;;;;;;;14.30;54.47;95967.63;5088837;28;20078;-77
2023/10/03 06:56:53;;;;;;;13.50;7.68;;;;;;;14.35;54.45;95967.88;5105596;28;20498;-78
2023/10/03 06:59:19;;;;;;;15.02;7.50;;;;;;;14.42;54.50;95974.44;5071384;28;20402;-77
2023/10/03 07:01:44;;;;;;;13.35;7.50;;;;;;;14.53;54.21;95977.72;5105804;28;20031;-77
2023/10/03 07:04:10;;;;;;;15.27;7.15;;;;;;;14.61;54.21;95979.84;5087808;28;20028;-77
2023/10/03 07:06:35;;;;;;;12.80;6.88;;;;;;;14.72;53.75;95987.84;5087635;28;20164;-77
2023/10/03 07:09:05;;;;;;;12.90;6.50;;;;;;;14.80;53.40;95989.22;5087572;28;20030;-77
2023/10/03 07:11:31;;;;;;;13.93;6.60;;;;;;;14.86;53.17;95992.22;5088872;28;20095;-75
2023/10/03 07:13:56;;;;;;;12.98;6.57;;;;;;;14.88;53.26;95989.78;5105167;28;20532;-77
2023/10/03 07:16:22;;;;;;;9.95;5.03;;;;;;;15.05;53.10;95993.25;5106573;28;20496;-76
2023/10/03 07:18:47;;;;;;;12.00;6.00;;;;;;;15.14;52.87;95993.38;5087025;28;20031;-76
2023/10/03 07:21:15;;;;;;;14.95;6.40;;;;;;;15.20;52.96;95988.06;5087727;28;20038;-77
2023/10/03 07:23:41;;;;;;;12.23;6.13;;;;;;;15.29;52.59;95988.16;5087556;28;20028;-77
2023/10/03 07:26:07;;;;;;;12.10;5.88;;;;;;;15.37;52.56;95981.97;5070470;28;20489;-77
2023/10/03 07:28:32;;;;;;;11.48;5.28;;;;;;;15.54;52.04;95985.41;5088108;28;20034;-77
2023/10/03 07:30:58;;;;;;;13.93;6.18;;;;;;;15.64;51.80;95986.31;5087171;28;20503;-77
2023/10/03 07:33:23;;;;;;;10.73;5.32;;;;;;;15.73;51.65;95991.97;5071232;28;20034;-77
2023/10/03 07:35:49;;;;;;;11.13;6.18;;;;;;;15.92;51.46;95995.69;5086601;28;20020;-77
2023/10/03 07:38:14;;;;;;;9.57;5.68;;;;;;;15.99;51.21;95989.13;5088036;28;20586;-77
2023/10/03 07:40:43;;;;;;;10.90;6.35;;;;;;;16.16;50.64;95993.31;5069795;28;20054;-77
2023/10/03 07:43:12;;;;;;;11.75;6.25;;;;;;;16.35;50.09;95997.03;5105736;28;20023;-76
2023/10/03 07:45:38;;;;;;;9.40;5.55;;;;;;;16.44;49.48;95999.88;5087888;28;20085;-76
2023/10/03 07:48:09;;;;;;;11.05;6.05;;;;;;;16.56;49.02;95999.06;5108632;28;20099;-77
2023/10/03 07:50:38;;;;;;;10.73;6.07;;;;;;;16.67;48.99;95991.13;5092864;28;20028;-76
2023/10/03 07:53:04;;;;;;;12.57;6.38;;;;;;;16.83;48.47;95992.97;5090967;28;20020;-76
2023/10/03 07:55:34;;;;;;;12.90;6.00;;;;;;;16.94;48.12;95987.78;5091982;28;20084;-76
2023/10/03 07:58:00;;;;;;;11.60;6.68;;;;;;;17.09;47.83;95981.69;5109142;28;20059;-77
2023/10/03 08:00:26;;;;;;;11.45;6.00;;;;;;;17.23;47.88;95987.50;5091305;28;20127;-76
2023/10/03 08:02:52;;;;;;;13.70;6.22;;;;;;;17.38;47.53;95984.97;5109630;28;20462;-77
2023/10/03 08:05:18;;;;;;;13.63;7.63;;;;;;;17.58;47.47;95975.44;5090913;28;20083;-77
2023/10/03 08:07:50;;;;;;;12.07;7.15;;;;;;;17.84;46.78;95984.38;5092092;28;20034;-77
2023/10/03 08:10:16;;;;;;;10.30;6.63;;;;;;;18.10;46.40;95979.34;5074185;28;20020;-77
2023/10/03 08:12:42;;;;;;;13.40;6.43;;;;;;;18.40;45.48;95981.22;5110472;28;20108;-77
2023/10/03 08:15:17;;;;;;;12.82;6.50;;;;;;;18.67;44.96;95977.69;5090547;28;20473;-77
2023/10/03 08:17:53;;;;;;;9.85;5.70;;;;;;;19.05;44.24;95982.75;5093124;28;20083;-76
2023/10/03 08:20:20;;;;;;;9.73;5.68;;;;;;;19.42;43.33;95981.88;5074440;28;20055;-77
2023/10/03 08:22:51;;;;;;;13.18;5.75;;;;;;;19.74;42.77;95966.44;5090876;28;20102;-76
2023/10/03 08:25:25;;;;;;;11.75;6.13;;;;;;;20.16;41.73;95975.47;5109970;28;20020;-77
2023/10/03 08:27:51;;;;;;;11.50;6.10;;;;;;;20.51;41.39;95974.97;5090327;28;20633;-76
2023/10/03 08:30:27;;;;;;;11.10;5.95;;;;;;;20.90;40.56;95981.31;5091141;28;20228;-77
2023/10/03 08:32:57;;;;;;;11.57;6.68;;;;;;;21.30;39.20;95980.00;5092215;28;20084;-77
2023/10/03 08:35:34;;;;;;;10.38;6.40;;;;;;;21.64;38.72;95966.56;5090593;28;20387;-77
2023/10/03 08:38:04;;;;;;;9.77;5.63;;;;;;;22.09;37.55;95956.00;5076160;28;20028;-78
2023/10/03 08:40:37;;;;;;;15.32;6.15;;;;;;;22.42;36.80;95964.88;5108086;28;20053;-77
2023/10/03 08:43:05;;;;;;;11.15;6.28;;;;;;;22.73;36.62;95964.22;5109957;28;20027;-77
2023/10/03 08:45:35;;;;;;;12.02;6.60;;;;;;;23.07;35.66;95958.22;5089920;28;20031;-77
2023/10/03 08:48:05;;;;;;;9.57;6.28;;;;;;;23.37;34.92;95961.53;5091211;28;20027;-77
2023/10/03 08:50:46;;;;;;;10.60;6.03;;;;;;;23.65;34.04;95953.38;5108713;28;20055;-77
2023/10/03 08:53:12;;;;;;;11.70;6.25;;;;;;;23.87;33.78;95947.91;5090792;28;20149;-77
2023/10/03 08:55:48;;;;;;;14.05;6.38;;;;;;;24.21;32.91;95948.09;5074042;28;20027;-77
2023/10/03 08:58:18;;;;;;;9.95;5.57;;;;;;;24.44;32.24;95946.97;5106773;28;20047;-78
2023/10/03 09:00:45;;;;;;;11.65;5.90;;;;;;;24.71;31.77;95947.56;5108423;28;20032;-77
2023/10/03 09:03:15;;;;;;;10.02;5.72;;;;;;;25.11;31.48;95940.75;5089803;28;20045;-78
2023/10/03 09:05:41;;;;;;;10.05;5.72;;;;;;;25.45;31.20;95949.22;5089997;28;20019;-78
2023/10/03 09:08:13;;;;;;;12.05;5.80;;;;;;;25.82;30.26;95943.38;5090700;28;20031;-77
2023/10/03 09:10:53;;;;;;;12.30;6.50;;;;;;;26.27;29.34;95941.22;5107791;28;20092;-78
2023/10/03 09:13:26;;;;;;;14.45;6.20;;;;;;;27.00;28.65;95938.81;5074911;28;20157;-78
2023/10/03 09:15:59;;;;;;;12.23;6.05;;;;;;;27.59;27.50;95924.59;5072521;28;20027;-77
2023/10/03 09:18:40;;;;;;;12.85;5.47;;;;;;;28.47;26.13;95941.94;5091280;28;20019;-77
2023/10/03 09:21:06;;;;;;;8.32;5.03;;;;;;;29.10;25.20;95937.03;5091387;28;20104;-78
2023/10/03 09:23:39;;;;;;;9.15;5.40;;;;;;;29.74;24.25;95928.56;5089086;28;20482;-77
2023/10/03 09:26:07;;;;;;;12.55;5.38;;;;;;;30.68;23.10;95935.81;5108889;28;20514;-77
2023/10/03 09:28:37;;;;;;;9.68;4.80;;;;;;;31.47;22.16;95932.03;5071973;28;20024;-77
2023/10/03 09:31:08;;;;;;;9.18;4.95;;;;;;;32.13;21.11;95933.75;5073633;28;20051;-77
2023/10/03 09:33:42;;;;;;;11.43;4.68;;;;;;;32.61;20.82;95931.41;5107433;28;20481;-78
2023/10/03 09:36:08;;;;;;;10.48;5.22;;;;;;;33.34;20.37;95926.41;5072424;28;20076;-77
2023/10/03 09:38:45;;;;;;;9.77;4.93;;;;;;;33.83;19.66;95931.78;5089760;28;20024;-77
2023/10/03 09:41:18;;;;;;;7.68;4.80;;;;;;;34.42;18.76;95919.41;5089784;28;20053;-76
2023/10/03 09:43:53;;;;;;;10.20;5.30;;;;;;;34.85;18.38;95924.06;5090869;28;20076;-76
2023/10/03 09:46:23;;;;;;;7.10;5.10;;;;;;;35.34;17.61;95922.72;5089416;28;20031;-76
2023/10/03 09:48:55;;;;;;;10.32;5.28;;;;;;;35.99;17.55;95914.09;5072759;28;20035;-77
2023/10/03 09:51:36;;;;;;;7.60;4.80;;;;;;;36.32;17.17;95911.88;5072965;28;20398;-77
2023/10/03 09:54:05;;;;;;;8.10;5.13;;;;;;;36.60;16.54;95919.25;5106600;28;20040;-76
2023/10/03 09:56:36;;;;;;;8.75;5.10;;;;;;;36.93;16.13;95914.09;5073140;28;20098;-77
2023/10/03 09:59:05;;;;;;;10.15;4.90;;;;;;;37.44;16.01;95914.56;5089354;28;20116;-77
2023/10/03 10:01:33;;;;;;;9.07;4.93;;;;;;;37.91;15.52;95904.72;5090058;28;20149;-77
2023/10/03 10:04:00;;;;;;;8.60;5.25;;;;;;;38.39;14.93;95911.94;5089454;28;20024;-77
2023/10/03 10:06:41;;;;;;;11.25;5.35;;;;;;;38.21;14.47;95900.56;5072467;28;20459;-77
2023/10/03 10:09:14;;;;;;;8.53;4.43;;;;;;;38.56;14.58;95903.19;5090169;28;20015;-77
2023/10/03 10:12:18;;;;;;;9.05;4.80;;;;;;;39.02;14.33;95891.53;5088999;28;20447;-77
2023/10/03 10:17:52;;;;;;;9.32;5.07;;;;;;;40.00;13.33;95889.91;5004824;28;20036;-77
2023/10/03 10:20:32;;;;;;;10.13;4.78;;;;;;;40.23;13.01;95885.69;4987162;28;20029;-78
2023/10/03 10:23:13;;;;;;;8.43;4.53;;;;;;;40.66;12.90;95883.56;5005023;28;20521;-77
2023/10/03 10:25:43;;;;;;;8.95;4.55;;;;;;;41.05;12.74;95878.25;5003752;28;20052;-77
2023/10/03 10:28:30;;;;;;;8.88;4.88;;;;;;;41.50;12.13;95881.13;4986351;28;20111;-78
2023/10/03 10:31:10;;;;;;;12.45;5.47;;;;;;;41.96;11.91;95868.13;4988202;28;20038;-78
2023/10/03 10:33:35;;;;;;;9.82;5.00;;;;;;;41.85;11.76;95860.22;5003562;28;20053;-78
2023/10/03 10:36:04;;;;;;;10.15;5.05;;;;;;;41.91;11.93;95861.34;4987987;28;20038;-78
2023/10/03 10:38:32;;;;;;;7.28;4.70;;;;;;;42.02;11.68;95861.97;5003748;28;20104;-77
2023/10/03 10:41:17;;;;;;;8.77;4.68;;;;;;;42.35;11.74;95856.78;5003971;28;20026;-78
2023/10/03 10:44:17;;;;;;;7.60;4.85;;;;;;;42.63;11.38;95854.09;4987736;28;20125;-78
2023/10/03 10:46:49;;;;;;;9.38;4.80;;;;;;;42.83;11.22;95855.25;4971074;28;20120;-77
2023/10/03 10:49:40;;;;;;;10.93;4.93;;;;;;;43.22;10.97;95849.53;4980678;28;20493;-77
2023/10/03 10:52:13;;;;;;;12.45;5.30;;;;;;;43.36;10.86;95846.69;5088205;28;20035;-77
2023/10/03 10:54:42;;;;;;;7.30;5.18;;;;;;;43.55;10.66;95844.84;5087807;28;20421;-78
2023/10/03 10:57:14;;;;;;;7.57;5.10;;;;;;;43.67;10.62;95851.28;5088568;28;20142;-78
2023/10/03 10:59:40;;;;;;;8.02;4.57;;;;;;;43.47;10.48;95839.34;5087642;28;20188;-78
2023/10/03 11:02:19;;;;;;;9.07;5.22;;;;;;;43.53;10.77;95833.13;5088212;28;20035;-77
2023/10/03 11:04:55;;;;;;;10.13;4.80;;;;;;;43.57;10.92;95831.22;5087791;28;20046;-78
2023/10/03 11:07:28;;;;;;;9.35;5.18;;;;;;;43.26;10.71;95825.88;5070780;28;20481;-77
2023/10/03 11:09:59;;;;;;;11.65;5.00;;;;;;;43.42;10.81;95826.81;5088235;28;20063;-78
2023/10/03 11:12:26;;;;;;;8.80;4.70;;;;;;;43.65;10.31;95825.13;5087382;28;20028;-78
2023/10/03 11:14:53;;;;;;;10.18;4.97;;;;;;;43.73;10.18;95808.19;5087778;28;20039;-77
2023/10/03 11:17:20;;;;;;;9.68;4.50;;;;;;;44.01;10.39;95814.00;5087691;28;20031;-78
2023/10/03 11:19:46;;;;;;;10.25;5.53;;;;;;;43.54;10.71;95808.59;5087859;28;20474;-77
2023/10/03 11:22:12;;;;;;;9.02;5.35;;;;;;;43.59;10.78;95813.19;5070050;28;20126;-78
2023/10/03 11:24:39;;;;;;;11.00;5.45;;;;;;;42.94;11.21;95802.41;5070613;28;20032;-77
2023/10/03 11:27:05;;;;;;;7.88;5.03;;;;;;;41.88;11.43;95793.34;5087916;28;20106;-77
2023/10/03 11:29:48;;;;;;;8.10;5.22;;;;;;;40.04;13.03;95791.56;5105363;28;20502;-77
2023/10/03 11:32:19;;;;;;;7.60;5.60;;;;;;;38.87;13.77;95787.66;5106613;28;20048;-76
2023/10/03 11:34:45;;;;;;;12.43;5.35;;;;;;;38.07;14.67;95773.16;5105354;28;20020;-77
2023/10/03 11:37:36;;;;;;;8.57;4.97;;;;;;;37.39;15.43;95766.53;5088850;28;20023;-77
2023/10/03 11:40:21;;;;;;;11.50;5.20;;;;;;;36.31;15.94;95769.34;5087643;28;20115;-77